Terminal Aerodrome Forecast
Issued by NWS

Home | Current Version | Previous Version | Text Only | Print | Product List | Glossary On
Versions: 1 2 3 4 5 6 7 8 9 10 11 12 13 14 15 16 17 18 19 20 21 22 23 24
000
FTUS46 KLOX 231100 AAB
TAFLGB
TAF AMD
KLGB 231156Z 2312/2412 VRB05KT P6SM OVC018
      TEMPO 2312/2314 SCT018
     FM231600 VRB05KT P6SM OVC020
     FM231900 19008KT P6SM SCT020
     FM240500 VRB05KT P6SM OVC010
     FM241100 VRB03KT P6SM OVC015=

USA.gov is the U.S. government's official web portal to all federal, state and local government web resources and services.